sensor_id;sensor_type;location;lat;lon;timestamp;P1;durP1;ratioP1;P2;durP2;ratioP2
351;SDS011;164;50.784;6.496;2023-04-25T00:01:05;14.55;;;7.88;;
351;SDS011;164;50.784;6.496;2023-04-25T00:03:34;12.38;;;6.88;;
351;SDS011;164;50.784;6.496;2023-04-25T00:06:01;6.85;;;6.40;;
351;SDS011;164;50.784;6.496;2023-04-25T00:08:28;13.38;;;6.07;;
351;SDS011;164;50.784;6.496;2023-04-25T00:10:56;7.78;;;6.32;;
351;SDS011;164;50.784;6.496;2023-04-25T00:13:23;10.00;;;6.57;;
351;SDS011;164;50.784;6.496;2023-04-25T00:15:50;9.60;;;7.68;;
351;SDS011;164;50.784;6.496;2023-04-25T00:18:19;9.35;;;6.57;;
351;SDS011;164;50.784;6.496;2023-04-25T00:20:46;11.25;;;6.40;;
351;SDS011;164;50.784;6.496;2023-04-25T00:23:13;8.50;;;6.70;;
351;SDS011;164;50.784;6.496;2023-04-25T00:25:42;8.15;;;7.15;;
351;SDS011;164;50.784;6.496;2023-04-25T00:28:10;7.50;;;6.60;;
351;SDS011;164;50.784;6.496;2023-04-25T00:30:37;9.63;;;7.53;;
351;SDS011;164;50.784;6.496;2023-04-25T00:33:04;9.35;;;6.00;;
351;SDS011;164;50.784;6.496;2023-04-25T00:35:33;9.27;;;6.88;;
351;SDS011;164;50.784;6.496;2023-04-25T00:38:04;8.88;;;6.00;;
351;SDS011;164;50.784;6.496;2023-04-25T00:40:31;8.77;;;6.78;;
351;SDS011;164;50.784;6.496;2023-04-25T00:42:58;11.13;;;7.07;;
351;SDS011;164;50.784;6.496;2023-04-25T00:45:27;11.10;;;6.47;;
351;SDS011;164;50.784;6.496;2023-04-25T00:47:55;10.98;;;7.07;;
351;SDS011;164;50.784;6.496;2023-04-25T00:50:23;6.75;;;6.35;;
351;SDS011;164;50.784;6.496;2023-04-25T00:52:51;11.02;;;6.70;;
351;SDS011;164;50.784;6.496;2023-04-25T00:55:18;10.07;;;6.55;;
351;SDS011;164;50.784;6.496;2023-04-25T00:57:47;7.90;;;7.20;;
351;SDS011;164;50.784;6.496;2023-04-25T01:00:14;11.02;;;7.50;;
351;SDS011;164;50.784;6.496;2023-04-25T01:02:41;13.35;;;7.53;;
351;SDS011;164;50.784;6.496;2023-04-25T01:05:09;7.15;;;6.75;;
351;SDS011;164;50.784;6.496;2023-04-25T01:07:37;12.43;;;7.65;;
351;SDS011;164;50.784;6.496;2023-04-25T01:10:06;11.68;;;7.53;;
351;SDS011;164;50.784;6.496;2023-04-25T01:12:34;9.10;;;7.90;;
351;SDS011;164;50.784;6.496;2023-04-25T01:15:01;7.40;;;6.90;;
351;SDS011;164;50.784;6.496;2023-04-25T01:17:28;14.20;;;7.30;;
351;SDS011;164;50.784;6.496;2023-04-25T01:19:56;8.50;;;7.10;;
351;SDS011;164;50.784;6.496;2023-04-25T01:22:25;10.90;;;7.10;;
351;SDS011;164;50.784;6.496;2023-04-25T01:24:52;11.23;;;7.32;;
351;SDS011;164;50.784;6.496;2023-04-25T01:27:20;14.98;;;8.32;;
351;SDS011;164;50.784;6.496;2023-04-25T01:29:47;8.02;;;6.70;;
351;SDS011;164;50.784;6.496;2023-04-25T01:32:15;8.07;;;7.55;;
351;SDS011;164;50.784;6.496;2023-04-25T01:34:42;11.60;;;7.53;;
351;SDS011;164;50.784;6.496;2023-04-25T01:37:10;13.07;;;7.45;;
351;SDS011;164;50.784;6.496;2023-04-25T01:39:38;11.80;;;7.63;;
351;SDS011;164;50.784;6.496;2023-04-25T01:42:06;8.88;;;7.30;;
351;SDS011;164;50.784;6.496;2023-04-25T01:44:33;16.70;;;7.93;;
351;SDS011;164;50.784;6.496;2023-04-25T01:47:01;9.85;;;7.40;;
351;SDS011;164;50.784;6.496;2023-04-25T01:49:29;11.15;;;7.85;;
351;SDS011;164;50.784;6.496;2023-04-25T01:51:56;11.15;;;7.60;;
351;SDS011;164;50.784;6.496;2023-04-25T01:54:23;10.20;;;6.72;;
351;SDS011;164;50.784;6.496;2023-04-25T01:56:52;12.90;;;8.30;;
351;SDS011;164;50.784;6.496;2023-04-25T01:59:21;11.68;;;7.50;;
351;SDS011;164;50.784;6.496;2023-04-25T02:01:48;19.35;;;7.45;;
351;SDS011;164;50.784;6.496;2023-04-25T02:04:16;12.48;;;6.55;;
351;SDS011;164;50.784;6.496;2023-04-25T02:06:43;13.00;;;7.25;;
351;SDS011;164;50.784;6.496;2023-04-25T02:09:10;10.63;;;6.07;;
351;SDS011;164;50.784;6.496;2023-04-25T02:11:37;14.05;;;6.32;;
351;SDS011;164;50.784;6.496;2023-04-25T02:14:06;14.90;;;7.85;;
351;SDS011;164;50.784;6.496;2023-04-25T02:16:33;8.98;;;7.45;;
351;SDS011;164;50.784;6.496;2023-04-25T02:19:01;10.57;;;7.18;;
351;SDS011;164;50.784;6.496;2023-04-25T02:21:28;13.82;;;8.27;;
351;SDS011;164;50.784;6.496;2023-04-25T02:23:55;8.75;;;6.25;;
351;SDS011;164;50.784;6.496;2023-04-25T02:26:23;15.80;;;6.95;;
351;SDS011;164;50.784;6.496;2023-04-25T02:28:50;9.20;;;5.78;;
351;SDS011;164;50.784;6.496;2023-04-25T02:31:19;8.82;;;6.05;;
351;SDS011;164;50.784;6.496;2023-04-25T02:33:46;11.60;;;7.40;;
351;SDS011;164;50.784;6.496;2023-04-25T02:36:14;17.45;;;7.90;;
351;SDS011;164;50.784;6.496;2023-04-25T02:38:41;8.00;;;5.43;;
351;SDS011;164;50.784;6.496;2023-04-25T02:41:08;9.57;;;5.95;;
351;SDS011;164;50.784;6.496;2023-04-25T02:43:35;13.40;;;7.82;;
351;SDS011;164;50.784;6.496;2023-04-25T02:46:03;8.48;;;5.57;;
351;SDS011;164;50.784;6.496;2023-04-25T02:48:31;10.90;;;6.97;;
351;SDS011;164;50.784;6.496;2023-04-25T02:50:58;11.30;;;5.93;;
351;SDS011;164;50.784;6.496;2023-04-25T02:53:26;7.60;;;5.68;;
351;SDS011;164;50.784;6.496;2023-04-25T02:55:53;8.30;;;6.50;;
351;SDS011;164;50.784;6.496;2023-04-25T02:58:23;7.32;;;5.70;;
351;SDS011;164;50.784;6.496;2023-04-25T03:00:50;16.77;;;7.93;;
351;SDS011;164;50.784;6.496;2023-04-25T03:03:17;9.48;;;5.72;;
351;SDS011;164;50.784;6.496;2023-04-25T03:05:48;6.95;;;6.10;;
351;SDS011;164;50.784;6.496;2023-04-25T03:08:15;13.00;;;7.05;;
351;SDS011;164;50.784;6.496;2023-04-25T03:10:42;9.27;;;5.47;;
351;SDS011;164;50.784;6.496;2023-04-25T03:13:09;13.65;;;6.85;;
351;SDS011;164;50.784;6.496;2023-04-25T03:15:37;11.20;;;7.07;;
351;SDS011;164;50.784;6.496;2023-04-25T03:18:04;15.90;;;6.55;;
351;SDS011;164;50.784;6.496;2023-04-25T03:20:32;13.55;;;7.68;;
351;SDS011;164;50.784;6.496;2023-04-25T03:23:00;10.38;;;6.47;;
351;SDS011;164;50.784;6.496;2023-04-25T03:25:28;18.58;;;5.97;;
351;SDS011;164;50.784;6.496;2023-04-25T03:27:55;11.35;;;6.28;;
351;SDS011;164;50.784;6.496;2023-04-25T03:30:22;20.55;;;6.28;;
351;SDS011;164;50.784;6.496;2023-04-25T03:32:49;10.73;;;6.25;;
351;SDS011;164;50.784;6.496;2023-04-25T03:35:17;9.63;;;6.10;;
351;SDS011;164;50.784;6.496;2023-04-25T03:37:44;8.30;;;5.88;;
351;SDS011;164;50.784;6.496;2023-04-25T03:40:12;17.63;;;7.28;;
351;SDS011;164;50.784;6.496;2023-04-25T03:42:40;11.98;;;6.22;;
351;SDS011;164;50.784;6.496;2023-04-25T03:45:07;12.52;;;7.03;;
351;SDS011;164;50.784;6.496;2023-04-25T03:47:35;12.50;;;6.20;;
351;SDS011;164;50.784;6.496;2023-04-25T03:50:02;9.48;;;6.90;;
351;SDS011;164;50.784;6.496;2023-04-25T03:52:29;14.00;;;7.72;;
351;SDS011;164;50.784;6.496;2023-04-25T03:54:57;11.88;;;7.00;;
351;SDS011;164;50.784;6.496;2023-04-25T03:57:25;11.27;;;6.95;;
351;SDS011;164;50.784;6.496;2023-04-25T03:59:52;8.50;;;6.20;;
351;SDS011;164;50.784;6.496;2023-04-25T04:02:19;11.65;;;7.85;;
351;SDS011;164;50.784;6.496;2023-04-25T04:04:47;8.80;;;7.07;;
351;SDS011;164;50.784;6.496;2023-04-25T04:07:14;10.45;;;6.45;;
351;SDS011;164;50.784;6.496;2023-04-25T04:09:41;9.20;;;6.80;;
351;SDS011;164;50.784;6.496;2023-04-25T04:12:08;13.75;;;7.70;;
351;SDS011;164;50.784;6.496;2023-04-25T04:14:37;15.13;;;7.00;;
351;SDS011;164;50.784;6.496;2023-04-25T04:17:04;10.30;;;6.90;;
351;SDS011;164;50.784;6.496;2023-04-25T04:19:32;13.18;;;6.82;;
351;SDS011;164;50.784;6.496;2023-04-25T04:21:59;11.95;;;6.65;;
351;SDS011;164;50.784;6.496;2023-04-25T04:24:26;9.52;;;6.80;;
351;SDS011;164;50.784;6.496;2023-04-25T04:26:54;11.30;;;6.85;;
351;SDS011;164;50.784;6.496;2023-04-25T04:29:21;10.45;;;6.47;;
351;SDS011;164;50.784;6.496;2023-04-25T04:31:51;8.93;;;6.18;;
351;SDS011;164;50.784;6.496;2023-04-25T04:34:18;10.48;;;5.80;;
351;SDS011;164;50.784;6.496;2023-04-25T04:36:46;8.40;;;6.20;;
351;SDS011;164;50.784;6.496;2023-04-25T04:39:13;12.43;;;7.10;;
351;SDS011;164;50.784;6.496;2023-04-25T04:41:40;13.30;;;6.68;;
351;SDS011;164;50.784;6.496;2023-04-25T04:44:08;7.25;;;5.20;;
351;SDS011;164;50.784;6.496;2023-04-25T04:46:35;15.55;;;6.93;;
351;SDS011;164;50.784;6.496;2023-04-25T04:49:08;13.57;;;5.60;;
351;SDS011;164;50.784;6.496;2023-04-25T04:51:35;13.80;;;6.25;;
351;SDS011;164;50.784;6.496;2023-04-25T04:54:03;12.85;;;5.78;;
351;SDS011;164;50.784;6.496;2023-04-25T04:56:30;11.60;;;7.80;;
351;SDS011;164;50.784;6.496;2023-04-25T04:58:58;11.50;;;6.35;;
351;SDS011;164;50.784;6.496;2023-04-25T05:01:26;11.63;;;5.90;;
351;SDS011;164;50.784;6.496;2023-04-25T05:03:54;13.00;;;6.80;;
351;SDS011;164;50.784;6.496;2023-04-25T05:06:27;11.85;;;7.03;;
351;SDS011;164;50.784;6.496;2023-04-25T05:08:55;18.73;;;8.65;;
351;SDS011;164;50.784;6.496;2023-04-25T05:11:22;16.88;;;7.35;;
351;SDS011;164;50.784;6.496;2023-04-25T05:13:51;9.60;;;7.35;;
351;SDS011;164;50.784;6.496;2023-04-25T05:16:18;13.65;;;6.05;;
351;SDS011;164;50.784;6.496;2023-04-25T05:18:45;12.38;;;6.35;;
351;SDS011;164;50.784;6.496;2023-04-25T05:21:12;12.35;;;6.85;;
351;SDS011;164;50.784;6.496;2023-04-25T05:23:41;10.05;;;5.88;;
351;SDS011;164;50.784;6.496;2023-04-25T05:26:09;15.75;;;7.57;;
351;SDS011;164;50.784;6.496;2023-04-25T05:28:38;10.65;;;6.32;;
351;SDS011;164;50.784;6.496;2023-04-25T05:31:06;14.55;;;6.25;;
351;SDS011;164;50.784;6.496;2023-04-25T05:33:34;13.63;;;7.07;;
351;SDS011;164;50.784;6.496;2023-04-25T05:36:02;14.35;;;6.35;;
351;SDS011;164;50.784;6.496;2023-04-25T05:38:29;12.02;;;6.60;;
351;SDS011;164;50.784;6.496;2023-04-25T05:40:58;13.27;;;6.45;;
351;SDS011;164;50.784;6.496;2023-04-25T05:43:25;11.98;;;5.78;;
351;SDS011;164;50.784;6.496;2023-04-25T05:45:52;14.65;;;6.68;;
351;SDS011;164;50.784;6.496;2023-04-25T05:48:20;9.27;;;5.97;;
351;SDS011;164;50.784;6.496;2023-04-25T05:50:47;10.60;;;6.20;;
351;SDS011;164;50.784;6.496;2023-04-25T05:53:14;16.65;;;7.20;;
351;SDS011;164;50.784;6.496;2023-04-25T05:55:41;13.20;;;6.38;;
351;SDS011;164;50.784;6.496;2023-04-25T05:58:10;18.63;;;8.95;;
351;SDS011;164;50.784;6.496;2023-04-25T06:00:38;17.63;;;6.93;;
351;SDS011;164;50.784;6.496;2023-04-25T06:03:06;16.30;;;7.18;;
351;SDS011;164;50.784;6.496;2023-04-25T06:05:34;13.90;;;6.40;;
351;SDS011;164;50.784;6.496;2023-04-25T06:08:02;14.48;;;6.80;;
351;SDS011;164;50.784;6.496;2023-04-25T06:10:29;13.05;;;6.45;;
351;SDS011;164;50.784;6.496;2023-04-25T06:12:56;13.43;;;6.65;;
351;SDS011;164;50.784;6.496;2023-04-25T06:15:25;16.90;;;7.03;;
351;SDS011;164;50.784;6.496;2023-04-25T06:17:52;12.65;;;7.07;;
351;SDS011;164;50.784;6.496;2023-04-25T06:20:20;12.50;;;7.28;;
351;SDS011;164;50.784;6.496;2023-04-25T06:22:49;13.52;;;6.00;;
351;SDS011;164;50.784;6.496;2023-04-25T06:25:16;13.68;;;6.57;;
351;SDS011;164;50.784;6.496;2023-04-25T06:27:44;10.63;;;6.25;;
351;SDS011;164;50.784;6.496;2023-04-25T06:30:11;12.52;;;6.55;;
351;SDS011;164;50.784;6.496;2023-04-25T06:32:40;14.30;;;7.32;;
351;SDS011;164;50.784;6.496;2023-04-25T06:35:07;9.63;;;5.93;;
351;SDS011;164;50.784;6.496;2023-04-25T06:37:35;17.40;;;6.93;;
351;SDS011;164;50.784;6.496;2023-04-25T06:40:03;10.23;;;7.28;;
351;SDS011;164;50.784;6.496;2023-04-25T06:42:30;14.88;;;6.85;;
351;SDS011;164;50.784;6.496;2023-04-25T06:44:58;13.52;;;7.20;;
351;SDS011;164;50.784;6.496;2023-04-25T06:47:25;19.42;;;7.00;;
351;SDS011;164;50.784;6.496;2023-04-25T06:49:53;14.15;;;6.82;;
351;SDS011;164;50.784;6.496;2023-04-25T06:52:21;11.55;;;5.82;;
351;SDS011;164;50.784;6.496;2023-04-25T06:54:48;12.50;;;6.03;;
351;SDS011;164;50.784;6.496;2023-04-25T06:57:15;16.00;;;7.07;;
351;SDS011;164;50.784;6.496;2023-04-25T06:59:43;12.32;;;6.90;;
351;SDS011;164;50.784;6.496;2023-04-25T07:02:10;11.13;;;6.55;;
351;SDS011;164;50.784;6.496;2023-04-25T07:04:38;12.38;;;6.07;;
351;SDS011;164;50.784;6.496;2023-04-25T07:07:07;15.27;;;6.72;;
351;SDS011;164;50.784;6.496;2023-04-25T07:09:34;11.30;;;5.75;;
351;SDS011;164;50.784;6.496;2023-04-25T07:12:01;11.13;;;5.03;;
351;SDS011;164;50.784;6.496;2023-04-25T07:14:29;14.80;;;5.57;;
351;SDS011;164;50.784;6.496;2023-04-25T07:16:56;9.55;;;5.78;;
351;SDS011;164;50.784;6.496;2023-04-25T07:19:23;11.57;;;4.20;;
351;SDS011;164;50.784;6.496;2023-04-25T07:21:52;12.38;;;6.07;;
351;SDS011;164;50.784;6.496;2023-04-25T07:24:20;8.65;;;4.70;;
351;SDS011;164;50.784;6.496;2023-04-25T07:26:48;10.13;;;4.95;;
351;SDS011;164;50.784;6.496;2023-04-25T07:29:15;10.20;;;5.25;;
351;SDS011;164;50.784;6.496;2023-04-25T07:31:43;13.02;;;5.22;;
351;SDS011;164;50.784;6.496;2023-04-25T07:34:10;9.15;;;4.93;;
351;SDS011;164;50.784;6.496;2023-04-25T07:36:37;7.68;;;4.32;;
351;SDS011;164;50.784;6.496;2023-04-25T07:39:05;8.00;;;4.90;;
351;SDS011;164;50.784;6.496;2023-04-25T07:41:35;7.68;;;3.97;;
351;SDS011;164;50.784;6.496;2023-04-25T07:44:03;7.80;;;5.10;;
351;SDS011;164;50.784;6.496;2023-04-25T07:46:30;13.40;;;4.80;;
351;SDS011;164;50.784;6.496;2023-04-25T07:48:57;10.35;;;4.95;;
351;SDS011;164;50.784;6.496;2023-04-25T07:51:25;8.52;;;5.03;;
351;SDS011;164;50.784;6.496;2023-04-25T07:53:52;10.10;;;4.55;;
351;SDS011;164;50.784;6.496;2023-04-25T07:56:20;13.73;;;4.97;;
351;SDS011;164;50.784;6.496;2023-04-25T07:58:48;11.88;;;5.38;;
351;SDS011;164;50.784;6.496;2023-04-25T08:01:16;7.90;;;4.82;;
351;SDS011;164;50.784;6.496;2023-04-25T08:03:44;10.90;;;6.13;;
351;SDS011;164;50.784;6.496;2023-04-25T08:06:11;7.22;;;4.50;;
351;SDS011;164;50.784;6.496;2023-04-25T08:08:38;8.77;;;5.65;;
351;SDS011;164;50.784;6.496;2023-04-25T08:11:06;13.35;;;5.20;;
351;SDS011;164;50.784;6.496;2023-04-25T08:13:33;7.80;;;4.88;;
351;SDS011;164;50.784;6.496;2023-04-25T08:16:02;9.90;;;4.75;;
351;SDS011;164;50.784;6.496;2023-04-25T08:18:29;8.75;;;5.15;;
351;SDS011;164;50.784;6.496;2023-04-25T08:20:57;14.88;;;4.53;;
351;SDS011;164;50.784;6.496;2023-04-25T08:23:24;8.68;;;4.47;;
351;SDS011;164;50.784;6.496;2023-04-25T08:25:52;8.70;;;4.25;;
351;SDS011;164;50.784;6.496;2023-04-25T08:28:22;5.38;;;3.75;;
351;SDS011;164;50.784;6.496;2023-04-25T08:30:49;6.65;;;3.65;;
351;SDS011;164;50.784;6.496;2023-04-25T08:33:18;6.13;;;3.17;;
351;SDS011;164;50.784;6.496;2023-04-25T08:35:45;6.95;;;2.92;;
351;SDS011;164;50.784;6.496;2023-04-25T08:38:12;6.47;;;3.10;;
351;SDS011;164;50.784;6.496;2023-04-25T08:40:40;8.35;;;3.90;;
351;SDS011;164;50.784;6.496;2023-04-25T08:43:07;5.93;;;3.20;;
351;SDS011;164;50.784;6.496;2023-04-25T08:45:36;5.10;;;2.88;;
351;SDS011;164;50.784;6.496;2023-04-25T08:48:05;6.22;;;3.03;;
351;SDS011;164;50.784;6.496;2023-04-25T08:50:36;7.57;;;3.35;;
351;SDS011;164;50.784;6.496;2023-04-25T08:53:04;9.05;;;3.28;;
351;SDS011;164;50.784;6.496;2023-04-25T08:55:33;9.82;;;2.80;;
351;SDS011;164;50.784;6.496;2023-04-25T08:58:00;8.63;;;3.22;;
351;SDS011;164;50.784;6.496;2023-04-25T09:00:28;9.35;;;2.67;;
351;SDS011;164;50.784;6.496;2023-04-25T09:02:56;4.88;;;2.83;;
351;SDS011;164;50.784;6.496;2023-04-25T09:05:23;11.20;;;3.65;;
351;SDS011;164;50.784;6.496;2023-04-25T09:07:52;6.40;;;2.88;;
351;SDS011;164;50.784;6.496;2023-04-25T09:10:22;7.75;;;2.90;;
351;SDS011;164;50.784;6.496;2023-04-25T09:13:01;9.48;;;3.00;;
351;SDS011;164;50.784;6.496;2023-04-25T09:15:30;4.47;;;2.35;;
351;SDS011;164;50.784;6.496;2023-04-25T09:17:57;6.70;;;3.10;;
351;SDS011;164;50.784;6.496;2023-04-25T09:20:24;8.65;;;2.83;;
351;SDS011;164;50.784;6.496;2023-04-25T09:23:02;5.70;;;2.50;;
351;SDS011;164;50.784;6.496;2023-04-25T09:25:33;7.53;;;3.03;;
351;SDS011;164;50.784;6.496;2023-04-25T09:28:03;5.93;;;2.80;;
351;SDS011;164;50.784;6.496;2023-04-25T09:30:31;7.53;;;2.95;;
351;SDS011;164;50.784;6.496;2023-04-25T09:33:03;6.03;;;2.88;;
351;SDS011;164;50.784;6.496;2023-04-25T09:35:30;7.95;;;3.45;;
351;SDS011;164;50.784;6.496;2023-04-25T09:38:07;8.80;;;3.00;;
351;SDS011;164;50.784;6.496;2023-04-25T09:40:38;5.07;;;2.70;;
351;SDS011;164;50.784;6.496;2023-04-25T09:43:08;6.50;;;2.80;;
351;SDS011;164;50.784;6.496;2023-04-25T09:45:40;6.65;;;2.63;;
351;SDS011;164;50.784;6.496;2023-04-25T09:48:10;7.95;;;3.05;;
351;SDS011;164;50.784;6.496;2023-04-25T09:50:38;6.88;;;2.80;;
351;SDS011;164;50.784;6.496;2023-04-25T09:53:06;5.85;;;3.45;;
351;SDS011;164;50.784;6.496;2023-04-25T09:55:34;11.35;;;4.07;;
351;SDS011;164;50.784;6.496;2023-04-25T09:58:03;6.13;;;3.17;;
351;SDS011;164;50.784;6.496;2023-04-25T10:00:32;4.35;;;2.95;;
351;SDS011;164;50.784;6.496;2023-04-25T10:03:00;6.13;;;3.47;;
351;SDS011;164;50.784;6.496;2023-04-25T10:05:28;5.75;;;3.28;;
351;SDS011;164;50.784;6.496;2023-04-25T10:07:58;6.40;;;3.75;;
351;SDS011;164;50.784;6.496;2023-04-25T10:10:25;8.60;;;3.17;;
351;SDS011;164;50.784;6.496;2023-04-25T10:12:55;3.40;;;2.60;;
351;SDS011;164;50.784;6.496;2023-04-25T10:15:22;4.75;;;2.90;;
351;SDS011;164;50.784;6.496;2023-04-25T10:17:50;6.53;;;3.10;;
351;SDS011;164;50.784;6.496;2023-04-25T10:20:17;7.10;;;3.55;;
351;SDS011;164;50.784;6.496;2023-04-25T10:22:45;6.97;;;3.30;;
351;SDS011;164;50.784;6.496;2023-04-25T10:25:13;4.88;;;2.70;;
351;SDS011;164;50.784;6.496;2023-04-25T10:27:41;7.22;;;2.75;;
351;SDS011;164;50.784;6.496;2023-04-25T10:30:10;6.22;;;3.65;;
351;SDS011;164;50.784;6.496;2023-04-25T10:32:41;5.85;;;3.00;;
351;SDS011;164;50.784;6.496;2023-04-25T10:35:12;7.35;;;2.72;;
351;SDS011;164;50.784;6.496;2023-04-25T10:40:23;7.50;;;3.55;;
351;SDS011;164;50.784;6.496;2023-04-25T10:42:51;6.90;;;3.10;;
351;SDS011;164;50.784;6.496;2023-04-25T10:45:20;8.30;;;3.10;;
351;SDS011;164;50.784;6.496;2023-04-25T10:47:48;4.85;;;2.58;;
351;SDS011;164;50.784;6.496;2023-04-25T10:50:15;3.95;;;2.72;;
351;SDS011;164;50.784;6.496;2023-04-25T10:52:43;4.00;;;3.00;;
351;SDS011;164;50.784;6.496;2023-04-25T10:55:10;5.18;;;3.35;;
351;SDS011;164;50.784;6.496;2023-04-25T10:57:39;6.20;;;2.75;;
351;SDS011;164;50.784;6.496;2023-04-25T11:00:08;5.68;;;2.60;;
351;SDS011;164;50.784;6.496;2023-04-25T11:02:38;6.03;;;3.22;;
351;SDS011;164;50.784;6.496;2023-04-25T11:05:08;5.25;;;3.20;;
351;SDS011;164;50.784;6.496;2023-04-25T11:07:38;7.70;;;3.80;;
351;SDS011;164;50.784;6.496;2023-04-25T11:10:06;7.85;;;3.38;;
351;SDS011;164;50.784;6.496;2023-04-25T11:12:34;3.80;;;3.00;;
351;SDS011;164;50.784;6.496;2023-04-25T11:15:02;9.82;;;4.35;;
351;SDS011;164;50.784;6.496;2023-04-25T11:17:29;3.05;;;2.90;;
351;SDS011;164;50.784;6.496;2023-04-25T11:19:58;8.13;;;2.78;;
351;SDS011;164;50.784;6.496;2023-04-25T11:22:26;6.03;;;2.72;;
351;SDS011;164;50.784;6.496;2023-04-25T11:24:54;7.13;;;3.25;;
351;SDS011;164;50.784;6.496;2023-04-25T11:27:22;4.57;;;3.20;;
351;SDS011;164;50.784;6.496;2023-04-25T11:29:50;6.60;;;2.75;;
351;SDS011;164;50.784;6.496;2023-04-25T11:32:17;5.82;;;3.33;;
351;SDS011;164;50.784;6.496;2023-04-25T11:34:45;4.85;;;2.20;;
351;SDS011;164;50.784;6.496;2023-04-25T11:37:15;4.18;;;3.00;;
351;SDS011;164;50.784;6.496;2023-04-25T11:39:42;6.28;;;2.88;;
351;SDS011;164;50.784;6.496;2023-04-25T11:42:11;3.45;;;2.90;;
351;SDS011;164;50.784;6.496;2023-04-25T11:44:39;5.50;;;3.45;;
351;SDS011;164;50.784;6.496;2023-04-25T11:47:06;3.83;;;2.83;;
351;SDS011;164;50.784;6.496;2023-04-25T11:49:34;6.97;;;2.97;;
351;SDS011;164;50.784;6.496;2023-04-25T11:52:02;4.63;;;2.78;;
351;SDS011;164;50.784;6.496;2023-04-25T11:54:30;4.05;;;3.00;;
351;SDS011;164;50.784;6.496;2023-04-25T11:56:58;7.40;;;3.45;;
351;SDS011;164;50.784;6.496;2023-04-25T11:59:26;5.15;;;2.45;;
351;SDS011;164;50.784;6.496;2023-04-25T12:01:53;3.67;;;2.53;;
351;SDS011;164;50.784;6.496;2023-04-25T12:04:23;3.75;;;2.65;;
351;SDS011;164;50.784;6.496;2023-04-25T12:06:51;3.72;;;1.80;;
351;SDS011;164;50.784;6.496;2023-04-25T12:09:19;4.97;;;2.50;;
351;SDS011;164;50.784;6.496;2023-04-25T12:11:52;5.50;;;2.33;;
351;SDS011;164;50.784;6.496;2023-04-25T12:14:20;3.92;;;2.25;;
351;SDS011;164;50.784;6.496;2023-04-25T12:16:49;5.72;;;2.95;;
351;SDS011;164;50.784;6.496;2023-04-25T12:19:17;4.38;;;2.67;;
351;SDS011;164;50.784;6.496;2023-04-25T12:21:45;5.55;;;3.17;;
351;SDS011;164;50.784;6.496;2023-04-25T12:24:13;3.63;;;2.45;;
351;SDS011;164;50.784;6.496;2023-04-25T12:26:49;4.00;;;2.67;;
351;SDS011;164;50.784;6.496;2023-04-25T12:29:17;8.75;;;3.10;;
351;SDS011;164;50.784;6.496;2023-04-25T12:31:45;5.68;;;3.20;;
351;SDS011;164;50.784;6.496;2023-04-25T12:34:12;4.97;;;2.88;;
351;SDS011;164;50.784;6.496;2023-04-25T12:36:40;4.35;;;2.50;;
351;SDS011;164;50.784;6.496;2023-04-25T12:39:07;7.63;;;3.58;;
351;SDS011;164;50.784;6.496;2023-04-25T12:41:35;6.03;;;3.38;;
351;SDS011;164;50.784;6.496;2023-04-25T12:44:04;7.28;;;3.15;;
351;SDS011;164;50.784;6.496;2023-04-25T12:46:32;6.35;;;3.17;;
351;SDS011;164;50.784;6.496;2023-04-25T12:48:59;5.57;;;2.97;;
351;SDS011;164;50.784;6.496;2023-04-25T12:51:28;5.38;;;2.72;;
351;SDS011;164;50.784;6.496;2023-04-25T12:53:57;5.88;;;3.22;;
351;SDS011;164;50.784;6.496;2023-04-25T12:56:25;6.25;;;3.50;;
351;SDS011;164;50.784;6.496;2023-04-25T12:58:52;5.43;;;2.90;;
351;SDS011;164;50.784;6.496;2023-04-25T13:01:21;6.55;;;3.10;;
351;SDS011;164;50.784;6.496;2023-04-25T13:03:50;5.75;;;2.53;;
351;SDS011;164;50.784;6.496;2023-04-25T13:06:20;5.00;;;2.85;;
351;SDS011;164;50.784;6.496;2023-04-25T13:08:47;2.40;;;1.90;;
351;SDS011;164;50.784;6.496;2023-04-25T13:11:14;6.38;;;3.10;;
351;SDS011;164;50.784;6.496;2023-04-25T13:13:42;3.65;;;2.58;;
351;SDS011;164;50.784;6.496;2023-04-25T13:16:10;5.90;;;3.00;;
351;SDS011;164;50.784;6.496;2023-04-25T13:18:40;6.47;;;1.95;;
351;SDS011;164;50.784;6.496;2023-04-25T13:21:09;4.80;;;2.10;;
351;SDS011;164;50.784;6.496;2023-04-25T13:23:37;3.95;;;2.40;;
351;SDS011;164;50.784;6.496;2023-04-25T13:26:04;4.63;;;2.42;;
351;SDS011;164;50.784;6.496;2023-04-25T13:28:31;3.90;;;2.03;;
351;SDS011;164;50.784;6.496;2023-04-25T13:30:58;6.22;;;2.53;;
351;SDS011;164;50.784;6.496;2023-04-25T13:33:26;7.22;;;2.60;;
351;SDS011;164;50.784;6.496;2023-04-25T13:35:55;6.22;;;2.42;;
351;SDS011;164;50.784;6.496;2023-04-25T13:38:22;4.95;;;2.20;;
351;SDS011;164;50.784;6.496;2023-04-25T13:40:50;6.03;;;2.60;;
351;SDS011;164;50.784;6.496;2023-04-25T13:43:18;5.43;;;3.08;;
351;SDS011;164;50.784;6.496;2023-04-25T13:45:46;4.57;;;2.42;;
351;SDS011;164;50.784;6.496;2023-04-25T13:48:14;6.18;;;2.78;;
351;SDS011;164;50.784;6.496;2023-04-25T13:50:41;4.05;;;2.33;;
351;SDS011;164;50.784;6.496;2023-04-25T13:53:10;3.67;;;2.03;;
351;SDS011;164;50.784;6.496;2023-04-25T13:55:37;4.53;;;2.50;;
351;SDS011;164;50.784;6.496;2023-04-25T13:58:04;3.88;;;2.38;;
351;SDS011;164;50.784;6.496;2023-04-25T14:00:35;4.82;;;2.80;;
351;SDS011;164;50.784;6.496;2023-04-25T14:03:04;2.70;;;1.80;;
351;SDS011;164;50.784;6.496;2023-04-25T14:05:32;5.38;;;2.55;;
351;SDS011;164;50.784;6.496;2023-04-25T14:08:03;5.32;;;2.40;;
351;SDS011;164;50.784;6.496;2023-04-25T14:10:32;2.60;;;2.17;;
351;SDS011;164;50.784;6.496;2023-04-25T14:12:59;5.05;;;2.38;;
351;SDS011;164;50.784;6.496;2023-04-25T14:15:28;6.97;;;2.17;;
351;SDS011;164;50.784;6.496;2023-04-25T14:17:56;3.13;;;1.90;;
351;SDS011;164;50.784;6.496;2023-04-25T14:20:23;4.05;;;2.05;;
351;SDS011;164;50.784;6.496;2023-04-25T14:22:50;2.38;;;1.67;;
351;SDS011;164;50.784;6.496;2023-04-25T14:25:19;3.47;;;2.45;;
351;SDS011;164;50.784;6.496;2023-04-25T14:27:48;2.65;;;2.30;;
351;SDS011;164;50.784;6.496;2023-04-25T14:30:15;3.30;;;2.20;;
351;SDS011;164;50.784;6.496;2023-04-25T14:32:43;10.45;;;3.00;;
351;SDS011;164;50.784;6.496;2023-04-25T14:35:11;4.35;;;2.45;;
351;SDS011;164;50.784;6.496;2023-04-25T14:37:38;5.90;;;3.22;;
351;SDS011;164;50.784;6.496;2023-04-25T14:40:13;4.20;;;1.80;;
351;SDS011;164;50.784;6.496;2023-04-25T14:42:42;5.88;;;2.47;;
351;SDS011;164;50.784;6.496;2023-04-25T14:45:11;3.05;;;1.90;;
351;SDS011;164;50.784;6.496;2023-04-25T14:47:39;5.03;;;2.17;;
351;SDS011;164;50.784;6.496;2023-04-25T14:50:07;5.10;;;1.90;;
351;SDS011;164;50.784;6.496;2023-04-25T14:52:34;3.45;;;1.85;;
351;SDS011;164;50.784;6.496;2023-04-25T14:55:02;9.73;;;2.25;;
351;SDS011;164;50.784;6.496;2023-04-25T14:57:30;2.03;;;1.70;;
351;SDS011;164;50.784;6.496;2023-04-25T14:59:57;4.25;;;2.15;;
351;SDS011;164;50.784;6.496;2023-04-25T15:02:32;4.40;;;2.10;;
351;SDS011;164;50.784;6.496;2023-04-25T15:05:00;5.88;;;2.75;;
351;SDS011;164;50.784;6.496;2023-04-25T15:07:28;4.88;;;1.95;;
351;SDS011;164;50.784;6.496;2023-04-25T15:09:55;9.43;;;3.33;;
351;SDS011;164;50.784;6.496;2023-04-25T15:12:23;3.63;;;2.05;;
351;SDS011;164;50.784;6.496;2023-04-25T15:14:51;5.35;;;2.70;;
351;SDS011;164;50.784;6.496;2023-04-25T15:17:19;3.25;;;2.25;;
351;SDS011;164;50.784;6.496;2023-04-25T15:19:47;3.47;;;2.25;;
351;SDS011;164;50.784;6.496;2023-04-25T15:22:15;2.03;;;1.73;;
351;SDS011;164;50.784;6.496;2023-04-25T15:24:42;2.72;;;1.80;;
351;SDS011;164;50.784;6.496;2023-04-25T15:27:09;3.08;;;2.03;;
351;SDS011;164;50.784;6.496;2023-04-25T15:29:37;4.25;;;2.40;;
351;SDS011;164;50.784;6.496;2023-04-25T15:32:05;3.65;;;1.30;;
351;SDS011;164;50.784;6.496;2023-04-25T15:34:32;3.80;;;2.53;;
351;SDS011;164;50.784;6.496;2023-04-25T15:37:01;2.33;;;1.63;;
351;SDS011;164;50.784;6.496;2023-04-25T15:39:28;3.70;;;1.80;;
351;SDS011;164;50.784;6.496;2023-04-25T15:41:56;4.35;;;1.90;;
351;SDS011;164;50.784;6.496;2023-04-25T15:44:23;2.70;;;1.30;;
351;SDS011;164;50.784;6.496;2023-04-25T15:46:50;7.07;;;1.90;;